sensor_id;sensor_type;location;lat;lon;timestamp;P1;durP1;ratioP1;P2;durP2;ratioP2
18042;SDS011;9146;48.074;11.968;2023-07-28T00:02:06;4.13;;;3.73;;
18042;SDS011;9146;48.074;11.968;2023-07-28T00:04:33;4.30;;;3.87;;
18042;SDS011;9146;48.074;11.968;2023-07-28T00:07:01;3.93;;;3.30;;
18042;SDS011;9146;48.074;11.968;2023-07-28T00:09:27;4.47;;;4.07;;
18042;SDS011;9146;48.074;11.968;2023-07-28T00:11:55;3.80;;;3.50;;
18042;SDS011;9146;48.074;11.968;2023-07-28T00:14:24;3.87;;;3.47;;
18042;SDS011;9146;48.074;11.968;2023-07-28T00:16:51;4.80;;;4.40;;
18042;SDS011;9146;48.074;11.968;2023-07-28T00:19:18;4.20;;;3.80;;
18042;SDS011;9146;48.074;11.968;2023-07-28T00:21:47;3.60;;;3.30;;
18042;SDS011;9146;48.074;11.968;2023-07-28T00:24:14;4.00;;;3.27;;
18042;SDS011;9146;48.074;11.968;2023-07-28T00:26:41;7.50;;;4.30;;
18042;SDS011;9146;48.074;11.968;2023-07-28T00:29:08;4.57;;;4.17;;
18042;SDS011;9146;48.074;11.968;2023-07-28T00:31:37;4.53;;;3.70;;
18042;SDS011;9146;48.074;11.968;2023-07-28T00:34:04;3.87;;;3.57;;
18042;SDS011;9146;48.074;11.968;2023-07-28T00:36:31;3.87;;;3.57;;
18042;SDS011;9146;48.074;11.968;2023-07-28T00:38:58;5.40;;;4.90;;
18042;SDS011;9146;48.074;11.968;2023-07-28T00:41:25;5.80;;;4.67;;
18042;SDS011;9146;48.074;11.968;2023-07-28T00:43:52;5.30;;;4.70;;
18042;SDS011;9146;48.074;11.968;2023-07-28T00:46:19;4.70;;;3.80;;
18042;SDS011;9146;48.074;11.968;2023-07-28T00:48:47;4.47;;;3.67;;
18042;SDS011;9146;48.074;11.968;2023-07-28T00:51:14;4.40;;;4.00;;
18042;SDS011;9146;48.074;11.968;2023-07-28T00:53:42;3.57;;;3.27;;
18042;SDS011;9146;48.074;11.968;2023-07-28T00:56:10;4.27;;;3.87;;
18042;SDS011;9146;48.074;11.968;2023-07-28T00:58:37;6.93;;;4.40;;
18042;SDS011;9146;48.074;11.968;2023-07-28T01:01:04;6.30;;;5.10;;
18042;SDS011;9146;48.074;11.968;2023-07-28T01:03:31;5.50;;;4.90;;
18042;SDS011;9146;48.074;11.968;2023-07-28T01:06:02;5.80;;;5.20;;
18042;SDS011;9146;48.074;11.968;2023-07-28T01:08:38;4.80;;;4.40;;
18042;SDS011;9146;48.074;11.968;2023-07-28T01:11:12;6.30;;;4.97;;
18042;SDS011;9146;48.074;11.968;2023-07-28T01:13:39;5.50;;;5.00;;
18042;SDS011;9146;48.074;11.968;2023-07-28T01:16:06;5.03;;;4.47;;
18042;SDS011;9146;48.074;11.968;2023-07-28T01:18:35;7.27;;;4.90;;
18042;SDS011;9146;48.074;11.968;2023-07-28T01:21:05;4.17;;;3.87;;
18042;SDS011;9146;48.074;11.968;2023-07-28T01:23:37;4.77;;;4.27;;
18042;SDS011;9146;48.074;11.968;2023-07-28T01:26:10;4.30;;;3.90;;
18042;SDS011;9146;48.074;11.968;2023-07-28T01:28:40;4.90;;;3.63;;
18042;SDS011;9146;48.074;11.968;2023-07-28T01:31:09;4.40;;;4.00;;
18042;SDS011;9146;48.074;11.968;2023-07-28T01:33:36;4.77;;;4.37;;
18042;SDS011;9146;48.074;11.968;2023-07-28T01:36:03;5.63;;;5.03;;
18042;SDS011;9146;48.074;11.968;2023-07-28T01:38:30;4.53;;;4.10;;
18042;SDS011;9146;48.074;11.968;2023-07-28T01:40:57;5.10;;;4.60;;
18042;SDS011;9146;48.074;11.968;2023-07-28T01:43:24;5.07;;;4.60;;
18042;SDS011;9146;48.074;11.968;2023-07-28T01:45:52;4.93;;;4.43;;
18042;SDS011;9146;48.074;11.968;2023-07-28T01:48:19;5.30;;;4.80;;
18042;SDS011;9146;48.074;11.968;2023-07-28T01:50:46;4.70;;;4.27;;
18042;SDS011;9146;48.074;11.968;2023-07-28T01:53:13;4.67;;;4.27;;
18042;SDS011;9146;48.074;11.968;2023-07-28T01:55:40;4.20;;;3.80;;
18042;SDS011;9146;48.074;11.968;2023-07-28T01:58:07;4.17;;;3.80;;
18042;SDS011;9146;48.074;11.968;2023-07-28T02:00:34;4.07;;;3.77;;
18042;SDS011;9146;48.074;11.968;2023-07-28T02:03:03;3.60;;;3.30;;
18042;SDS011;9146;48.074;11.968;2023-07-28T02:05:30;5.23;;;4.07;;
18042;SDS011;9146;48.074;11.968;2023-07-28T02:07:57;4.23;;;3.93;;
18042;SDS011;9146;48.074;11.968;2023-07-28T02:10:26;5.07;;;4.57;;
18042;SDS011;9146;48.074;11.968;2023-07-28T02:12:54;5.37;;;4.97;;
18042;SDS011;9146;48.074;11.968;2023-07-28T02:15:21;4.70;;;4.23;;
18042;SDS011;9146;48.074;11.968;2023-07-28T02:17:48;4.33;;;4.00;;
18042;SDS011;9146;48.074;11.968;2023-07-28T02:20:17;4.57;;;4.17;;
18042;SDS011;9146;48.074;11.968;2023-07-28T02:22:44;4.50;;;4.07;;
18042;SDS011;9146;48.074;11.968;2023-07-28T02:25:11;5.00;;;4.47;;
18042;SDS011;9146;48.074;11.968;2023-07-28T02:27:38;4.20;;;3.80;;
18042;SDS011;9146;48.074;11.968;2023-07-28T02:30:05;4.10;;;3.80;;
18042;SDS011;9146;48.074;11.968;2023-07-28T02:32:33;3.97;;;3.57;;
18042;SDS011;9146;48.074;11.968;2023-07-28T02:35:00;4.70;;;4.30;;
18042;SDS011;9146;48.074;11.968;2023-07-28T02:37:29;6.30;;;3.80;;
18042;SDS011;9146;48.074;11.968;2023-07-28T02:39:55;3.70;;;3.40;;
18042;SDS011;9146;48.074;11.968;2023-07-28T02:42:22;3.77;;;3.37;;
18042;SDS011;9146;48.074;11.968;2023-07-28T02:44:50;3.93;;;3.60;;
18042;SDS011;9146;48.074;11.968;2023-07-28T02:47:17;4.43;;;4.03;;
18042;SDS011;9146;48.074;11.968;2023-07-28T02:49:44;4.33;;;3.93;;
18042;SDS011;9146;48.074;11.968;2023-07-28T02:52:11;8.70;;;3.50;;
18042;SDS011;9146;48.074;11.968;2023-07-28T02:54:40;4.23;;;3.83;;
18042;SDS011;9146;48.074;11.968;2023-07-28T02:57:06;4.33;;;3.93;;
18042;SDS011;9146;48.074;11.968;2023-07-28T02:59:33;4.80;;;3.73;;
18042;SDS011;9146;48.074;11.968;2023-07-28T03:02:00;3.47;;;3.10;;
18042;SDS011;9146;48.074;11.968;2023-07-28T03:04:27;4.20;;;3.80;;
18042;SDS011;9146;48.074;11.968;2023-07-28T03:06:54;3.53;;;3.23;;
18042;SDS011;9146;48.074;11.968;2023-07-28T03:09:21;3.67;;;3.37;;
18042;SDS011;9146;48.074;11.968;2023-07-28T03:11:51;4.20;;;3.27;;
18042;SDS011;9146;48.074;11.968;2023-07-28T03:14:17;3.70;;;3.40;;
18042;SDS011;9146;48.074;11.968;2023-07-28T03:16:47;3.63;;;3.33;;
18042;SDS011;9146;48.074;11.968;2023-07-28T03:19:15;3.77;;;3.47;;
18042;SDS011;9146;48.074;11.968;2023-07-28T03:21:42;3.83;;;3.40;;
18042;SDS011;9146;48.074;11.968;2023-07-28T03:24:09;4.00;;;3.60;;
18042;SDS011;9146;48.074;11.968;2023-07-28T03:26:36;4.80;;;4.40;;
18042;SDS011;9146;48.074;11.968;2023-07-28T03:29:04;4.40;;;4.10;;
18042;SDS011;9146;48.074;11.968;2023-07-28T03:31:31;5.60;;;3.80;;
18042;SDS011;9146;48.074;11.968;2023-07-28T03:34:00;5.30;;;4.00;;
18042;SDS011;9146;48.074;11.968;2023-07-28T03:36:27;4.73;;;4.20;;
18042;SDS011;9146;48.074;11.968;2023-07-28T03:38:54;4.40;;;4.00;;
18042;SDS011;9146;48.074;11.968;2023-07-28T03:41:21;3.97;;;3.67;;
18042;SDS011;9146;48.074;11.968;2023-07-28T03:43:48;4.90;;;4.40;;
18042;SDS011;9146;48.074;11.968;2023-07-28T03:46:16;4.93;;;4.47;;
18042;SDS011;9146;48.074;11.968;2023-07-28T03:48:43;6.83;;;4.23;;
18042;SDS011;9146;48.074;11.968;2023-07-28T03:51:10;4.60;;;3.93;;
18042;SDS011;9146;48.074;11.968;2023-07-28T03:53:37;4.70;;;4.20;;
18042;SDS011;9146;48.074;11.968;2023-07-28T03:56:04;4.67;;;3.93;;
18042;SDS011;9146;48.074;11.968;2023-07-28T03:58:31;5.80;;;3.83;;
18042;SDS011;9146;48.074;11.968;2023-07-28T04:00:58;4.23;;;3.80;;
18042;SDS011;9146;48.074;11.968;2023-07-28T04:03:27;3.67;;;3.37;;
18042;SDS011;9146;48.074;11.968;2023-07-28T04:05:54;4.00;;;3.70;;
18042;SDS011;9146;48.074;11.968;2023-07-28T04:08:20;5.47;;;3.70;;
18042;SDS011;9146;48.074;11.968;2023-07-28T04:10:47;3.10;;;2.90;;
18042;SDS011;9146;48.074;11.968;2023-07-28T04:13:14;4.20;;;3.80;;
18042;SDS011;9146;48.074;11.968;2023-07-28T04:15:41;4.00;;;3.70;;
18042;SDS011;9146;48.074;11.968;2023-07-28T04:18:08;3.50;;;3.20;;
18042;SDS011;9146;48.074;11.968;2023-07-28T04:20:37;3.47;;;3.17;;
18042;SDS011;9146;48.074;11.968;2023-07-28T04:23:04;3.40;;;3.10;;
18042;SDS011;9146;48.074;11.968;2023-07-28T04:25:32;3.10;;;2.90;;
18042;SDS011;9146;48.074;11.968;2023-07-28T04:27:59;2.80;;;2.60;;
18042;SDS011;9146;48.074;11.968;2023-07-28T04:30:26;4.13;;;3.70;;
18042;SDS011;9146;48.074;11.968;2023-07-28T04:32:53;3.83;;;3.47;;
18042;SDS011;9146;48.074;11.968;2023-07-28T04:35:20;3.27;;;2.97;;
18042;SDS011;9146;48.074;11.968;2023-07-28T04:37:48;3.00;;;2.80;;
18042;SDS011;9146;48.074;11.968;2023-07-28T04:40:15;3.33;;;3.13;;
18042;SDS011;9146;48.074;11.968;2023-07-28T04:42:42;4.50;;;3.23;;
18042;SDS011;9146;48.074;11.968;2023-07-28T04:45:09;4.43;;;3.63;;
18042;SDS011;9146;48.074;11.968;2023-07-28T04:47:36;2.83;;;2.60;;
18042;SDS011;9146;48.074;11.968;2023-07-28T04:50:03;3.37;;;3.00;;
18042;SDS011;9146;48.074;11.968;2023-07-28T04:52:31;3.80;;;3.27;;
18042;SDS011;9146;48.074;11.968;2023-07-28T04:54:59;4.07;;;3.77;;
18042;SDS011;9146;48.074;11.968;2023-07-28T04:57:26;3.80;;;3.50;;
18042;SDS011;9146;48.074;11.968;2023-07-28T04:59:53;3.43;;;3.13;;
18042;SDS011;9146;48.074;11.968;2023-07-28T05:02:19;3.40;;;3.10;;
18042;SDS011;9146;48.074;11.968;2023-07-28T05:04:46;3.50;;;3.30;;
18042;SDS011;9146;48.074;11.968;2023-07-28T05:07:13;3.57;;;3.27;;
18042;SDS011;9146;48.074;11.968;2023-07-28T05:09:40;5.17;;;3.40;;
18042;SDS011;9146;48.074;11.968;2023-07-28T05:12:09;3.17;;;2.90;;
18042;SDS011;9146;48.074;11.968;2023-07-28T05:14:37;3.47;;;3.07;;
18042;SDS011;9146;48.074;11.968;2023-07-28T05:17:04;4.13;;;3.33;;
18042;SDS011;9146;48.074;11.968;2023-07-28T05:19:31;3.10;;;2.87;;
18042;SDS011;9146;48.074;11.968;2023-07-28T05:21:58;3.20;;;3.00;;
18042;SDS011;9146;48.074;11.968;2023-07-28T05:24:25;3.73;;;3.17;;
18042;SDS011;9146;48.074;11.968;2023-07-28T05:26:52;6.03;;;4.10;;
18042;SDS011;9146;48.074;11.968;2023-07-28T05:29:20;5.30;;;3.90;;
18042;SDS011;9146;48.074;11.968;2023-07-28T05:31:47;4.30;;;3.90;;
18042;SDS011;9146;48.074;11.968;2023-07-28T05:34:14;4.20;;;3.80;;
18042;SDS011;9146;48.074;11.968;2023-07-28T05:36:42;4.30;;;3.20;;
18042;SDS011;9146;48.074;11.968;2023-07-28T05:39:09;4.23;;;3.93;;
18042;SDS011;9146;48.074;11.968;2023-07-28T05:41:36;5.53;;;4.47;;
18042;SDS011;9146;48.074;11.968;2023-07-28T05:44:04;4.60;;;4.20;;
18042;SDS011;9146;48.074;11.968;2023-07-28T05:46:32;6.17;;;4.70;;
18042;SDS011;9146;48.074;11.968;2023-07-28T05:49:00;6.53;;;5.10;;
18042;SDS011;9146;48.074;11.968;2023-07-28T05:51:27;4.87;;;4.40;;
18042;SDS011;9146;48.074;11.968;2023-07-28T05:53:53;6.50;;;4.37;;
18042;SDS011;9146;48.074;11.968;2023-07-28T05:56:20;4.07;;;3.70;;
18042;SDS011;9146;48.074;11.968;2023-07-28T05:58:47;4.87;;;4.47;;
18042;SDS011;9146;48.074;11.968;2023-07-28T06:01:15;4.90;;;4.40;;
18042;SDS011;9146;48.074;11.968;2023-07-28T06:03:44;6.00;;;4.80;;
18042;SDS011;9146;48.074;11.968;2023-07-28T06:06:11;4.20;;;3.90;;
18042;SDS011;9146;48.074;11.968;2023-07-28T06:08:39;5.20;;;3.97;;
18042;SDS011;9146;48.074;11.968;2023-07-28T06:11:05;4.93;;;4.40;;
18042;SDS011;9146;48.074;11.968;2023-07-28T06:13:33;5.13;;;3.67;;
18042;SDS011;9146;48.074;11.968;2023-07-28T06:16:00;4.40;;;4.00;;
18042;SDS011;9146;48.074;11.968;2023-07-28T06:18:27;4.67;;;4.27;;
18042;SDS011;9146;48.074;11.968;2023-07-28T06:20:55;4.97;;;4.57;;
18042;SDS011;9146;48.074;11.968;2023-07-28T06:23:22;3.80;;;3.47;;
18042;SDS011;9146;48.074;11.968;2023-07-28T06:25:49;3.83;;;3.50;;
18042;SDS011;9146;48.074;11.968;2023-07-28T06:28:17;3.60;;;3.30;;
18042;SDS011;9146;48.074;11.968;2023-07-28T06:30:44;3.47;;;3.23;;
18042;SDS011;9146;48.074;11.968;2023-07-28T06:33:10;4.40;;;3.33;;
18042;SDS011;9146;48.074;11.968;2023-07-28T06:35:37;4.60;;;3.40;;
18042;SDS011;9146;48.074;11.968;2023-07-28T06:38:06;3.30;;;3.03;;
18042;SDS011;9146;48.074;11.968;2023-07-28T06:40:33;3.50;;;3.20;;
18042;SDS011;9146;48.074;11.968;2023-07-28T06:43:00;3.97;;;3.20;;
18042;SDS011;9146;48.074;11.968;2023-07-28T06:45:27;5.90;;;4.00;;
18042;SDS011;9146;48.074;11.968;2023-07-28T06:47:54;4.10;;;3.70;;
18042;SDS011;9146;48.074;11.968;2023-07-28T06:50:21;7.00;;;3.67;;
18042;SDS011;9146;48.074;11.968;2023-07-28T06:52:48;4.23;;;3.53;;
18042;SDS011;9146;48.074;11.968;2023-07-28T06:55:17;4.73;;;3.73;;
18042;SDS011;9146;48.074;11.968;2023-07-28T06:57:46;4.80;;;4.07;;
18042;SDS011;9146;48.074;11.968;2023-07-28T07:00:14;4.17;;;3.77;;
18042;SDS011;9146;48.074;11.968;2023-07-28T07:02:43;4.20;;;3.80;;
18042;SDS011;9146;48.074;11.968;2023-07-28T07:05:10;5.00;;;4.03;;
18042;SDS011;9146;48.074;11.968;2023-07-28T07:07:36;4.27;;;3.70;;
18042;SDS011;9146;48.074;11.968;2023-07-28T07:10:05;4.50;;;3.90;;
18042;SDS011;9146;48.074;11.968;2023-07-28T07:12:34;3.50;;;3.20;;
18042;SDS011;9146;48.074;11.968;2023-07-28T07:15:02;2.97;;;2.77;;
18042;SDS011;9146;48.074;11.968;2023-07-28T07:17:30;3.30;;;3.00;;
18042;SDS011;9146;48.074;11.968;2023-07-28T07:19:57;3.63;;;3.33;;
18042;SDS011;9146;48.074;11.968;2023-07-28T07:22:24;3.30;;;3.00;;
18042;SDS011;9146;48.074;11.968;2023-07-28T07:24:51;3.40;;;3.10;;
18042;SDS011;9146;48.074;11.968;2023-07-28T07:27:18;2.63;;;2.43;;
18042;SDS011;9146;48.074;11.968;2023-07-28T07:29:45;3.03;;;2.80;;
18042;SDS011;9146;48.074;11.968;2023-07-28T07:32:12;3.47;;;3.17;;
18042;SDS011;9146;48.074;11.968;2023-07-28T07:34:41;2.60;;;2.40;;
18042;SDS011;9146;48.074;11.968;2023-07-28T07:37:08;3.37;;;3.00;;
18042;SDS011;9146;48.074;11.968;2023-07-28T07:39:35;2.40;;;2.20;;
18042;SDS011;9146;48.074;11.968;2023-07-28T07:42:02;3.57;;;2.63;;
18042;SDS011;9146;48.074;11.968;2023-07-28T07:44:30;2.50;;;2.30;;
18042;SDS011;9146;48.074;11.968;2023-07-28T07:47:00;3.20;;;2.90;;
18042;SDS011;9146;48.074;11.968;2023-07-28T07:49:37;2.80;;;2.60;;
18042;SDS011;9146;48.074;11.968;2023-07-28T07:52:05;4.53;;;2.40;;
18042;SDS011;9146;48.074;11.968;2023-07-28T07:54:32;3.07;;;2.80;;
18042;SDS011;9146;48.074;11.968;2023-07-28T07:56:59;2.70;;;2.50;;
18042;SDS011;9146;48.074;11.968;2023-07-28T07:59:27;2.87;;;2.67;;
18042;SDS011;9146;48.074;11.968;2023-07-28T08:01:57;2.97;;;2.50;;
18042;SDS011;9146;48.074;11.968;2023-07-28T08:04:26;3.30;;;3.00;;
18042;SDS011;9146;48.074;11.968;2023-07-28T08:06:54;2.90;;;2.63;;
18042;SDS011;9146;48.074;11.968;2023-07-28T08:09:20;2.57;;;2.37;;
18042;SDS011;9146;48.074;11.968;2023-07-28T08:11:48;3.57;;;2.40;;
18042;SDS011;9146;48.074;11.968;2023-07-28T08:14:15;3.13;;;2.37;;
18042;SDS011;9146;48.074;11.968;2023-07-28T08:16:42;3.70;;;2.90;;
18042;SDS011;9146;48.074;11.968;2023-07-28T08:19:09;2.47;;;2.27;;
18042;SDS011;9146;48.074;11.968;2023-07-28T08:21:38;2.37;;;2.17;;
18042;SDS011;9146;48.074;11.968;2023-07-28T08:24:05;2.50;;;2.30;;
18042;SDS011;9146;48.074;11.968;2023-07-28T08:26:32;2.40;;;2.20;;
18042;SDS011;9146;48.074;11.968;2023-07-28T08:28:59;3.33;;;2.13;;
18042;SDS011;9146;48.074;11.968;2023-07-28T08:31:26;2.60;;;2.40;;
18042;SDS011;9146;48.074;11.968;2023-07-28T08:33:53;2.50;;;2.30;;
18042;SDS011;9146;48.074;11.968;2023-07-28T08:36:20;3.07;;;2.67;;
18042;SDS011;9146;48.074;11.968;2023-07-28T08:38:48;3.00;;;2.70;;
18042;SDS011;9146;48.074;11.968;2023-07-28T08:41:15;2.70;;;2.47;;
18042;SDS011;9146;48.074;11.968;2023-07-28T08:43:42;2.40;;;2.20;;
18042;SDS011;9146;48.074;11.968;2023-07-28T08:46:10;2.70;;;2.50;;
18042;SDS011;9146;48.074;11.968;2023-07-28T08:48:38;3.10;;;2.90;;
18042;SDS011;9146;48.074;11.968;2023-07-28T08:51:05;2.70;;;2.50;;
18042;SDS011;9146;48.074;11.968;2023-07-28T08:53:33;2.63;;;2.43;;
18042;SDS011;9146;48.074;11.968;2023-07-28T08:56:01;2.40;;;2.20;;
18042;SDS011;9146;48.074;11.968;2023-07-28T08:58:29;3.70;;;2.53;;
18042;SDS011;9146;48.074;11.968;2023-07-28T09:00:56;2.87;;;2.57;;
18042;SDS011;9146;48.074;11.968;2023-07-28T09:03:26;2.57;;;2.30;;
18042;SDS011;9146;48.074;11.968;2023-07-28T09:05:58;4.10;;;2.13;;
18042;SDS011;9146;48.074;11.968;2023-07-28T09:08:25;2.60;;;2.40;;
18042;SDS011;9146;48.074;11.968;2023-07-28T09:10:52;2.83;;;2.63;;
18042;SDS011;9146;48.074;11.968;2023-07-28T09:13:21;3.30;;;2.87;;
18042;SDS011;9146;48.074;11.968;2023-07-28T09:15:47;3.03;;;2.63;;
18042;SDS011;9146;48.074;11.968;2023-07-28T09:18:15;4.13;;;2.87;;
18042;SDS011;9146;48.074;11.968;2023-07-28T09:20:43;2.47;;;2.20;;
18042;SDS011;9146;48.074;11.968;2023-07-28T09:23:10;2.77;;;2.57;;
18042;SDS011;9146;48.074;11.968;2023-07-28T09:25:40;4.53;;;2.73;;
18042;SDS011;9146;48.074;11.968;2023-07-28T09:28:07;3.10;;;2.83;;
18042;SDS011;9146;48.074;11.968;2023-07-28T09:30:46;9.13;;;2.30;;
18042;SDS011;9146;48.074;11.968;2023-07-28T09:33:18;2.90;;;2.60;;
18042;SDS011;9146;48.074;11.968;2023-07-28T09:35:55;4.17;;;2.80;;
18042;SDS011;9146;48.074;11.968;2023-07-28T09:38:23;2.77;;;2.57;;
18042;SDS011;9146;48.074;11.968;2023-07-28T09:40:54;2.43;;;2.23;;
18042;SDS011;9146;48.074;11.968;2023-07-28T09:43:24;3.30;;;2.93;;
18042;SDS011;9146;48.074;11.968;2023-07-28T09:45:52;2.70;;;2.50;;
18042;SDS011;9146;48.074;11.968;2023-07-28T09:48:19;4.57;;;3.00;;
18042;SDS011;9146;48.074;11.968;2023-07-28T09:50:48;2.90;;;2.70;;
18042;SDS011;9146;48.074;11.968;2023-07-28T09:53:15;3.43;;;2.67;;
18042;SDS011;9146;48.074;11.968;2023-07-28T09:55:44;3.57;;;2.80;;
18042;SDS011;9146;48.074;11.968;2023-07-28T09:58:13;3.10;;;2.80;;
18042;SDS011;9146;48.074;11.968;2023-07-28T10:00:44;3.60;;;2.80;;
18042;SDS011;9146;48.074;11.968;2023-07-28T10:03:12;4.17;;;3.00;;
18042;SDS011;9146;48.074;11.968;2023-07-28T10:05:41;3.30;;;3.00;;
18042;SDS011;9146;48.074;11.968;2023-07-28T10:08:08;2.90;;;2.67;;
18042;SDS011;9146;48.074;11.968;2023-07-28T10:10:37;3.20;;;2.90;;
18042;SDS011;9146;48.074;11.968;2023-07-28T10:13:06;2.97;;;2.67;;
18042;SDS011;9146;48.074;11.968;2023-07-28T10:15:45;4.27;;;3.20;;
18042;SDS011;9146;48.074;11.968;2023-07-28T10:18:15;3.90;;;2.67;;
18042;SDS011;9146;48.074;11.968;2023-07-28T10:20:42;6.40;;;3.37;;
18042;SDS011;9146;48.074;11.968;2023-07-28T10:23:15;2.67;;;2.47;;
18042;SDS011;9146;48.074;11.968;2023-07-28T10:25:44;3.70;;;3.00;;
18042;SDS011;9146;48.074;11.968;2023-07-28T10:28:27;2.67;;;2.47;;
18042;SDS011;9146;48.074;11.968;2023-07-28T10:30:56;3.17;;;2.87;;
18042;SDS011;9146;48.074;11.968;2023-07-28T10:33:32;3.07;;;2.77;;
18042;SDS011;9146;48.074;11.968;2023-07-28T10:36:10;3.20;;;2.97;;
18042;SDS011;9146;48.074;11.968;2023-07-28T10:38:38;2.93;;;2.73;;
18042;SDS011;9146;48.074;11.968;2023-07-28T10:41:06;3.40;;;3.03;;
18042;SDS011;9146;48.074;11.968;2023-07-28T10:43:35;2.93;;;2.73;;
18042;SDS011;9146;48.074;11.968;2023-07-28T10:46:02;2.93;;;2.50;;
18042;SDS011;9146;48.074;11.968;2023-07-28T10:48:32;5.53;;;3.43;;
18042;SDS011;9146;48.074;11.968;2023-07-28T10:51:01;3.07;;;2.87;;
18042;SDS011;9146;48.074;11.968;2023-07-28T10:53:28;4.27;;;3.00;;
18042;SDS011;9146;48.074;11.968;2023-07-28T10:55:55;4.40;;;3.30;;
18042;SDS011;9146;48.074;11.968;2023-07-28T10:58:22;3.00;;;2.80;;
18042;SDS011;9146;48.074;11.968;2023-07-28T11:00:50;3.70;;;3.17;;
18042;SDS011;9146;48.074;11.968;2023-07-28T11:03:18;2.80;;;2.60;;
18042;SDS011;9146;48.074;11.968;2023-07-28T11:05:47;2.57;;;2.37;;
18042;SDS011;9146;48.074;11.968;2023-07-28T11:08:15;2.97;;;2.77;;
18042;SDS011;9146;48.074;11.968;2023-07-28T11:10:42;9.63;;;3.00;;
18042;SDS011;9146;48.074;11.968;2023-07-28T11:13:09;3.40;;;2.70;;
18042;SDS011;9146;48.074;11.968;2023-07-28T11:15:36;2.77;;;2.57;;
18042;SDS011;9146;48.074;11.968;2023-07-28T11:18:04;6.67;;;3.00;;
18042;SDS011;9146;48.074;11.968;2023-07-28T11:20:31;4.13;;;2.87;;
18042;SDS011;9146;48.074;11.968;2023-07-28T11:23:01;3.13;;;2.87;;
18042;SDS011;9146;48.074;11.968;2023-07-28T11:25:30;2.90;;;2.70;;
18042;SDS011;9146;48.074;11.968;2023-07-28T11:28:00;3.93;;;2.80;;
18042;SDS011;9146;48.074;11.968;2023-07-28T11:30:31;2.83;;;2.63;;
18042;SDS011;9146;48.074;11.968;2023-07-28T11:32:58;4.23;;;3.33;;
18042;SDS011;9146;48.074;11.968;2023-07-28T11:35:26;3.53;;;3.23;;
18042;SDS011;9146;48.074;11.968;2023-07-28T11:37:53;3.77;;;2.97;;
18042;SDS011;9146;48.074;11.968;2023-07-28T11:40:23;3.00;;;2.80;;
18042;SDS011;9146;48.074;11.968;2023-07-28T11:42:51;2.10;;;2.00;;
18042;SDS011;9146;48.074;11.968;2023-07-28T11:45:19;2.80;;;2.60;;
18042;SDS011;9146;48.074;11.968;2023-07-28T11:47:57;3.40;;;2.53;;
18042;SDS011;9146;48.074;11.968;2023-07-28T11:50:26;3.93;;;3.33;;
18042;SDS011;9146;48.074;11.968;2023-07-28T11:52:54;2.93;;;2.73;;
18042;SDS011;9146;48.074;11.968;2023-07-28T11:55:24;3.43;;;2.50;;
18042;SDS011;9146;48.074;11.968;2023-07-28T11:57:51;3.00;;;2.57;;
18042;SDS011;9146;48.074;11.968;2023-07-28T12:00:19;3.37;;;2.80;;
18042;SDS011;9146;48.074;11.968;2023-07-28T12:03:02;3.50;;;3.20;;
18042;SDS011;9146;48.074;11.968;2023-07-28T12:05:30;3.27;;;2.97;;
18042;SDS011;9146;48.074;11.968;2023-07-28T12:07:59;3.27;;;2.90;;
18042;SDS011;9146;48.074;11.968;2023-07-28T12:10:29;3.03;;;2.33;;
18042;SDS011;9146;48.074;11.968;2023-07-28T12:12:58;3.20;;;3.00;;
18042;SDS011;9146;48.074;11.968;2023-07-28T12:15:30;5.80;;;2.90;;
18042;SDS011;9146;48.074;11.968;2023-07-28T12:18:08;3.00;;;2.70;;
18042;SDS011;9146;48.074;11.968;2023-07-28T12:20:38;2.73;;;2.53;;
18042;SDS011;9146;48.074;11.968;2023-07-28T12:23:06;4.33;;;2.50;;
18042;SDS011;9146;48.074;11.968;2023-07-28T12:25:36;2.80;;;2.60;;
18042;SDS011;9146;48.074;11.968;2023-07-28T12:28:04;2.90;;;2.70;;
18042;SDS011;9146;48.074;11.968;2023-07-28T12:30:31;2.83;;;2.63;;
18042;SDS011;9146;48.074;11.968;2023-07-28T12:32:59;3.30;;;3.00;;
18042;SDS011;9146;48.074;11.968;2023-07-28T12:35:26;6.00;;;2.87;;
18042;SDS011;9146;48.074;11.968;2023-07-28T12:37:56;3.90;;;2.53;;
18042;SDS011;9146;48.074;11.968;2023-07-28T12:40:25;4.57;;;3.00;;
18042;SDS011;9146;48.074;11.968;2023-07-28T12:42:54;7.07;;;2.73;;
18042;SDS011;9146;48.074;11.968;2023-07-28T12:45:22;3.07;;;2.80;;
18042;SDS011;9146;48.074;11.968;2023-07-28T12:47:50;3.03;;;2.83;;
18042;SDS011;9146;48.074;11.968;2023-07-28T12:50:18;3.07;;;2.80;;
18042;SDS011;9146;48.074;11.968;2023-07-28T12:52:46;3.30;;;3.00;;
18042;SDS011;9146;48.074;11.968;2023-07-28T12:55:13;2.80;;;2.60;;
18042;SDS011;9146;48.074;11.968;2023-07-28T12:57:40;5.73;;;2.60;;
18042;SDS011;9146;48.074;11.968;2023-07-28T13:00:10;3.33;;;3.03;;
18042;SDS011;9146;48.074;11.968;2023-07-28T13:02:39;2.73;;;2.53;;
18042;SDS011;9146;48.074;11.968;2023-07-28T13:05:07;4.10;;;2.70;;
18042;SDS011;9146;48.074;11.968;2023-07-28T13:07:35;3.60;;;3.30;;
18042;SDS011;9146;48.074;11.968;2023-07-28T13:10:03;2.70;;;2.50;;
18042;SDS011;9146;48.074;11.968;2023-07-28T13:12:30;4.33;;;3.10;;
18042;SDS011;9146;48.074;11.968;2023-07-28T13:14:57;3.13;;;2.20;;
18042;SDS011;9146;48.074;11.968;2023-07-28T13:17:25;3.80;;;2.83;;
18042;SDS011;9146;48.074;11.968;2023-07-28T13:19:52;3.40;;;3.00;;
18042;SDS011;9146;48.074;11.968;2023-07-28T13:22:19;2.67;;;2.47;;
18042;SDS011;9146;48.074;11.968;2023-07-28T13:24:46;2.90;;;2.70;;
18042;SDS011;9146;48.074;11.968;2023-07-28T13:27:13;3.20;;;2.90;;
18042;SDS011;9146;48.074;11.968;2023-07-28T13:29:40;2.67;;;2.47;;
18042;SDS011;9146;48.074;11.968;2023-07-28T13:32:15;3.40;;;3.00;;
18042;SDS011;9146;48.074;11.968;2023-07-28T13:34:44;2.90;;;2.60;;
18042;SDS011;9146;48.074;11.968;2023-07-28T13:37:12;3.03;;;2.83;;
18042;SDS011;9146;48.074;11.968;2023-07-28T13:39:41;4.47;;;2.70;;
18042;SDS011;9146;48.074;11.968;2023-07-28T13:42:08;3.30;;;3.00;;
18042;SDS011;9146;48.074;11.968;2023-07-28T13:44:37;3.47;;;3.07;;
18042;SDS011;9146;48.074;11.968;2023-07-28T13:47:04;2.97;;;2.77;;
18042;SDS011;9146;48.074;11.968;2023-07-28T13:49:31;2.37;;;2.17;;
18042;SDS011;9146;48.074;11.968;2023-07-28T13:52:02;2.83;;;2.47;;
18042;SDS011;9146;48.074;11.968;2023-07-28T13:54:29;2.50;;;2.30;;
18042;SDS011;9146;48.074;11.968;2023-07-28T13:56:56;2.90;;;2.70;;
18042;SDS011;9146;48.074;11.968;2023-07-28T13:59:23;2.70;;;2.50;;
18042;SDS011;9146;48.074;11.968;2023-07-28T14:01:51;2.27;;;2.17;;
18042;SDS011;9146;48.074;11.968;2023-07-28T14:04:18;3.50;;;2.83;;
18042;SDS011;9146;48.074;11.968;2023-07-28T14:06:45;4.90;;;2.90;;
18042;SDS011;9146;48.074;11.968;2023-07-28T14:09:13;3.13;;;2.83;;
18042;SDS011;9146;48.074;11.968;2023-07-28T14:11:40;3.07;;;2.87;;
18042;SDS011;9146;48.074;11.968;2023-07-28T14:14:07;2.80;;;2.60;;
18042;SDS011;9146;48.074;11.968;2023-07-28T14:16:34;3.03;;;2.83;;
18042;SDS011;9146;48.074;11.968;2023-07-28T14:19:01;3.30;;;2.47;;
18042;SDS011;9146;48.074;11.968;2023-07-28T14:21:31;2.70;;;2.50;;
18042;SDS011;9146;48.074;11.968;2023-07-28T14:23:57;3.10;;;2.80;;
18042;SDS011;9146;48.074;11.968;2023-07-28T14:26:26;3.67;;;2.50;;
18042;SDS011;9146;48.074;11.968;2023-07-28T14:28:53;3.73;;;2.87;;
18042;SDS011;9146;48.074;11.968;2023-07-28T14:31:20;3.03;;;2.60;;
18042;SDS011;9146;48.074;11.968;2023-07-28T14:33:48;3.60;;;2.57;;
18042;SDS011;9146;48.074;11.968;2023-07-28T14:36:15;2.60;;;2.40;;
18042;SDS011;9146;48.074;11.968;2023-07-28T14:38:42;2.70;;;2.50;;
18042;SDS011;9146;48.074;11.968;2023-07-28T14:41:09;2.63;;;2.40;;
18042;SDS011;9146;48.074;11.968;2023-07-28T14:43:37;2.77;;;2.57;;
18042;SDS011;9146;48.074;11.968;2023-07-28T14:46:04;3.23;;;2.70;;
18042;SDS011;9146;48.074;11.968;2023-07-28T14:48:31;2.37;;;2.17;;
18042;SDS011;9146;48.074;11.968;2023-07-28T14:50:59;2.87;;;2.40;;
18042;SDS011;9146;48.074;11.968;2023-07-28T14:53:27;3.20;;;2.90;;